Time;durP1;ratioP1;P1;durP2;ratioP2;P2;SDS_P1;SDS_P2;PMS_P1;PMS_P2;Temp;Humidity;BMP_temperature;BMP_pressure;BME280_temperature;BME280_humidity;BME280_pressure;Samples;Min_cycle;Max_cycle;Signal;HPM_P1;HPM_P2
2021/10/25 00:01:30;;;;;;;5.80;1.27;;;;;;;10.94;75.15;100255.34;5046417;28;20036;-77
2021/10/25 00:03:58;;;;;;;7.15;1.00;;;;;;;10.88;75.09;100254.03;5046381;28;20094;-77
2021/10/25 00:06:25;;;;;;;9.00;1.88;;;;;;;10.87;75.19;100252.41;5061845;28;20049;-77
2021/10/25 00:08:51;;;;;;;7.00;1.70;;;;;;;10.83;75.23;100245.97;5041914;28;20118;-77
2021/10/25 00:11:18;;;;;;;6.50;1.23;;;;;;;10.81;75.05;100254.66;5038016;28;20051;-76
2021/10/25 00:13:45;;;;;;;6.57;1.83;;;;;;;10.80;75.25;100252.25;5060740;28;20477;-77
2021/10/25 00:16:12;;;;;;;2.00;0.73;;;;;;;10.77;75.38;100247.41;5063138;28;20040;-77
2021/10/25 00:18:38;;;;;;;4.90;1.38;;;;;;;10.75;75.36;100258.84;5045857;28;20051;-77
2021/10/25 00:21:05;;;;;;;7.80;1.30;;;;;;;10.75;75.37;100260.81;5065082;28;20048;-77
2021/10/25 00:23:32;;;;;;;10.27;1.80;;;;;;;10.74;75.45;100260.03;5067109;28;20072;-77
2021/10/25 00:26:00;;;;;;;5.68;1.20;;;;;;;10.72;75.56;100272.63;5045366;28;20067;-77
2021/10/25 00:28:27;;;;;;;5.60;0.85;;;;;;;10.71;75.54;100276.53;5062330;28;20073;-77
2021/10/25 00:30:54;;;;;;;5.28;1.13;;;;;;;10.68;75.60;100277.25;5062056;28;20049;-77
2021/10/25 00:33:20;;;;;;;8.90;1.10;;;;;;;10.66;75.72;100285.09;5046685;28;20428;-77
2021/10/25 00:35:47;;;;;;;9.05;1.40;;;;;;;10.66;75.56;100283.16;5046784;28;20526;-76
2021/10/25 00:38:15;;;;;;;9.65;3.45;;;;;;;10.66;75.57;100285.91;5040121;28;20804;-77
2021/10/25 00:40:43;;;;;;;7.68;1.20;;;;;;;10.63;75.73;100277.50;5061439;28;20041;-77
2021/10/25 00:43:10;;;;;;;23.15;3.65;;;;;;;10.61;75.61;100282.59;5044256;28;20131;-77
2021/10/25 00:45:37;;;;;;;8.52;1.10;;;;;;;10.57;75.80;100276.97;5057100;28;20135;-77
2021/10/25 00:48:04;;;;;;;7.97;1.38;;;;;;;10.53;75.90;100270.56;5061294;28;20124;-77
2021/10/25 00:50:31;;;;;;;3.97;1.20;;;;;;;10.55;75.79;100272.97;5042957;28;20071;-77
2021/10/25 00:52:59;;;;;;;14.82;2.88;;;;;;;10.55;75.87;100272.97;5046523;28;20040;-76
2021/10/25 00:55:26;;;;;;;8.75;1.23;;;;;;;10.53;75.67;100275.28;5042895;28;20044;-77
2021/10/25 00:57:53;;;;;;;7.55;1.45;;;;;;;10.52;75.78;100273.66;5062412;28;20115;-76
2021/10/25 01:00:20;;;;;;;6.28;1.27;;;;;;;10.51;75.70;100270.09;5061248;28;20496;-77
2021/10/25 01:02:46;;;;;;;5.85;1.13;;;;;;;10.48;75.86;100275.53;5060104;28;20043;-77
2021/10/25 01:05:14;;;;;;;8.30;1.40;;;;;;;10.48;75.86;100272.78;5045863;28;20055;-77
2021/10/25 01:07:41;;;;;;;1.77;0.70;;;;;;;10.46;75.97;100272.34;5062749;28;20051;-77
2021/10/25 01:10:08;;;;;;;7.38;2.42;;;;;;;10.40;75.67;100283.66;5062365;28;20127;-76
2021/10/25 01:12:35;;;;;;;9.88;1.27;;;;;;;10.40;75.98;100283.66;5045771;28;20119;-77
2021/10/25 01:15:04;;;;;;;10.10;1.48;;;;;;;10.39;75.78;100284.81;5063024;28;20043;-77
2021/10/25 01:17:31;;;;;;;10.65;2.00;;;;;;;10.36;76.36;100280.00;5061610;28;20063;-77
2021/10/25 01:19:59;;;;;;;6.72;1.35;;;;;;;10.34;76.12;100279.56;5060945;28;20084;-77
2021/10/25 01:22:26;;;;;;;5.40;1.52;;;;;;;10.35;75.90;100280.38;5061282;28;20056;-77
2021/10/25 01:24:54;;;;;;;12.65;3.83;;;;;;;10.33;76.02;100293.72;5063423;28;20110;-77
2021/10/25 01:27:21;;;;;;;6.47;1.00;;;;;;;10.32;75.78;100294.91;5043287;28;20059;-77
2021/10/25 01:29:49;;;;;;;5.47;1.20;;;;;;;10.32;76.05;100287.41;5061463;28;20037;-77
2021/10/25 01:32:16;;;;;;;6.15;1.80;;;;;;;10.29;76.15;100287.31;5062485;28;20056;-77
2021/10/25 01:34:42;;;;;;;11.07;1.70;;;;;;;10.27;76.12;100293.16;5061892;28;20040;-77
2021/10/25 01:37:09;;;;;;;6.07;1.13;;;;;;;10.25;76.14;100295.50;5052430;28;20037;-76
2021/10/25 01:39:36;;;;;;;3.58;1.15;;;;;;;10.26;76.02;100288.81;5058272;28;20059;-77
2021/10/25 01:42:04;;;;;;;6.05;1.15;;;;;;;10.27;76.13;100292.41;5061206;28;20052;-77
2021/10/25 01:44:31;;;;;;;7.00;1.42;;;;;;;10.25;76.07;100298.25;5058130;28;20041;-77
2021/10/25 01:46:58;;;;;;;8.48;1.80;;;;;;;10.26;75.85;100296.31;5040838;28;20959;-77
2021/10/25 01:49:25;;;;;;;10.93;1.55;;;;;;;10.26;76.03;100299.88;5059346;28;20051;-76
2021/10/25 01:51:52;;;;;;;9.30;1.60;;;;;;;10.25;75.74;100298.25;5043062;28;20412;-77
2021/10/25 01:54:19;;;;;;;7.57;1.60;;;;;;;10.22;75.84;100298.97;5056893;28;20056;-77
2021/10/25 01:56:46;;;;;;;10.80;1.80;;;;;;;10.22;75.82;100296.19;5042752;28;20040;-77
2021/10/25 01:59:13;;;;;;;4.07;1.05;;;;;;;10.22;75.94;100301.72;5062629;28;20481;-77
2021/10/25 02:01:39;;;;;;;7.00;1.98;;;;;;;10.22;75.88;100309.22;5063762;28;20039;-77
2021/10/25 02:04:06;;;;;;;10.48;1.88;;;;;;;10.18;75.76;100306.38;5062250;28;20037;-77
2021/10/25 02:06:33;;;;;;;5.70;1.23;;;;;;;10.17;75.85;100302.00;5062132;28;21829;-77
2021/10/25 02:09:01;;;;;;;6.88;2.50;;;;;;;10.13;75.91;100306.63;5042816;28;20041;-77
2021/10/25 02:11:27;;;;;;;6.22;1.23;;;;;;;10.13;76.08;100301.09;5039977;28;20076;-77
2021/10/25 02:13:54;;;;;;;9.80;2.30;;;;;;;10.13;76.06;100309.41;5041635;28;20064;-77
2021/10/25 02:16:21;;;;;;;9.38;2.05;;;;;;;10.11;75.93;100297.84;5063988;28;20556;-76
2021/10/25 02:18:48;;;;;;;11.32;1.77;;;;;;;10.10;75.76;100309.25;5062312;28;20548;-77
2021/10/25 02:21:14;;;;;;;8.75;1.80;;;;;;;10.06;76.25;100303.63;5063473;28;20488;-77
2021/10/25 02:23:41;;;;;;;14.25;2.10;;;;;;;10.06;76.00;100298.09;5064493;28;20127;-77
2021/10/25 02:26:08;;;;;;;10.50;1.35;;;;;;;10.04;75.89;100297.66;5065134;28;20118;-77
2021/10/25 02:28:35;;;;;;;6.88;1.17;;;;;;;10.03;75.85;100290.53;5046953;28;20051;-77
2021/10/25 02:31:02;;;;;;;11.15;1.67;;;;;;;10.02;76.22;100291.66;5065295;28;20040;-76
2021/10/25 02:33:29;;;;;;;9.15;1.67;;;;;;;9.99;76.32;100288.78;5064361;28;20044;-77
2021/10/25 02:35:55;;;;;;;5.75;1.23;;;;;;;10.00;76.26;100295.94;5032270;28;20102;-77
2021/10/25 02:38:22;;;;;;;5.85;1.10;;;;;;;9.98;76.23;100296.28;5044693;28;20052;-77
2021/10/25 02:40:49;;;;;;;8.40;1.10;;;;;;;9.94;76.10;100291.81;5047262;28;20115;-77
2021/10/25 02:43:16;;;;;;;16.35;1.70;;;;;;;9.95;75.95;100288.72;5063301;28;20094;-76
2021/10/25 02:45:43;;;;;;;10.20;1.88;;;;;;;9.98;76.03;100289.97;5063833;28;20049;-77
2021/10/25 02:48:11;;;;;;;4.82;1.48;;;;;;;9.96;76.03;100293.06;5064694;28;20099;-76
2021/10/25 02:50:39;;;;;;;6.38;1.52;;;;;;;9.94;76.05;100287.09;5044746;28;20045;-77
2021/10/25 02:53:09;;;;;;;7.53;1.40;;;;;;;9.93;76.09;100291.00;5065588;28;20055;-76
2021/10/25 02:55:36;;;;;;;7.30;1.70;;;;;;;9.91;76.02;100287.78;5059796;28;20048;-77
2021/10/25 02:58:03;;;;;;;8.93;2.53;;;;;;;9.89;76.10;100290.09;5047474;28;20048;-77
2021/10/25 03:00:30;;;;;;;8.52;1.17;;;;;;;9.88;76.02;100285.72;5054389;28;20045;-77
2021/10/25 03:02:57;;;;;;;14.50;2.05;;;;;;;9.88;76.16;100291.25;5059044;28;20060;-77
2021/10/25 03:05:24;;;;;;;6.32;1.00;;;;;;;9.88;76.19;100288.50;5047653;28;20076;-77
2021/10/25 03:07:51;;;;;;;8.95;2.00;;;;;;;9.85;76.09;100294.72;5065951;28;20090;-78
2021/10/25 03:10:18;;;;;;;11.15;1.33;;;;;;;9.87;76.11;100297.16;5061540;28;20136;-77
2021/10/25 03:12:47;;;;;;;2.65;0.90;;;;;;;9.86;76.02;100301.88;5063808;28;20496;-77
2021/10/25 03:15:15;;;;;;;8.20;2.45;;;;;;;9.84;76.09;100301.41;5065525;28;20037;-77
2021/10/25 03:17:43;;;;;;;5.28;1.23;;;;;;;9.81;76.15;100299.34;5045170;28;20045;-77
2021/10/25 03:20:11;;;;;;;8.60;1.55;;;;;;;9.79;76.13;100285.09;5064803;28;20040;-77
2021/10/25 03:22:38;;;;;;;7.32;1.67;;;;;;;9.78;76.06;100294.53;5046153;28;20078;-77
2021/10/25 03:25:06;;;;;;;5.93;1.00;;;;;;;9.78;76.22;100289.00;5060660;28;20098;-77
2021/10/25 03:27:33;;;;;;;9.88;1.30;;;;;;;9.79;76.17;100287.84;5064862;28;20047;-76
2021/10/25 03:30:00;;;;;;;9.80;1.48;;;;;;;9.78;75.94;100286.22;5047441;28;20504;-77
2021/10/25 03:32:27;;;;;;;6.30;1.13;;;;;;;9.75;76.09;100300.75;5047385;28;20045;-77
2021/10/25 03:34:54;;;;;;;8.13;1.30;;;;;;;9.74;76.15;100301.91;5060087;28;20404;-77
2021/10/25 03:37:21;;;;;;;7.55;1.15;;;;;;;9.73;76.27;100297.53;5049415;28;20050;-77
2021/10/25 03:39:50;;;;;;;4.95;1.20;;;;;;;9.70;76.08;100299.03;5052560;28;20474;-77
2021/10/25 03:45:00;;;;;;;8.48;2.00;;;;;;;9.74;75.90;100299.16;5059503;28;20076;-77
2021/10/25 03:47:36;;;;;;;8.40;1.30;;;;;;;9.72;75.90;100291.19;5061089;28;20041;-77
2021/10/25 03:52:49;;;;;;;4.38;1.60;;;;;;;9.70;75.82;100290.75;5044969;28;20049;-77
2021/10/25 04:27:49;;;;;;;6.72;1.38;;;;;;;9.44;76.57;100322.69;5062966;28;20052;-77
2021/10/25 04:30:12;;;;;;;7.63;1.48;;;;;;;9.40;76.66;100322.59;5059052;28;20060;-77
2021/10/25 04:32:39;;;;;;;5.97;1.45;;;;;;;9.38;76.76;100315.78;5046064;28;20056;-76
2021/10/25 04:35:06;;;;;;;4.25;1.27;;;;;;;9.37;76.87;100317.75;5063138;28;20119;-77
2021/10/25 04:37:33;;;;;;;7.80;2.13;;;;;;;9.37;76.98;100322.50;5043948;28;20407;-76
2021/10/25 04:40:01;;;;;;;6.78;0.85;;;;;;;9.36;76.99;100316.16;5040735;28;20064;-76
2021/10/25 04:42:28;;;;;;;12.85;2.70;;;;;;;9.34;76.95;100323.19;5044101;28;20051;-77
2021/10/25 04:44:55;;;;;;;8.57;1.40;;;;;;;9.31;77.08;100324.69;5060326;28;20059;-77
2021/10/25 04:47:21;;;;;;;6.18;1.27;;;;;;;9.33;77.05;100316.03;5063704;28;20047;-76
2021/10/25 04:49:48;;;;;;;10.93;2.78;;;;;;;9.30;77.06;100311.19;5063181;28;20033;-77
2021/10/25 04:52:14;;;;;;;9.95;1.77;;;;;;;9.31;77.33;100323.88;5063735;28;20055;-77
2021/10/25 04:54:41;;;;;;;5.97;1.33;;;;;;;9.29;77.04;100326.19;5063730;28;20072;-77
2021/10/25 04:57:08;;;;;;;10.45;2.67;;;;;;;9.29;77.05;100321.47;5064066;28;20561;-77
2021/10/25 04:59:36;;;;;;;8.98;1.42;;;;;;;9.31;76.95;100329.41;5045025;28;20044;-77
2021/10/25 05:02:03;;;;;;;10.88;1.52;;;;;;;9.32;77.02;100336.53;5058607;28;20045;-76
2021/10/25 05:04:31;;;;;;;11.93;1.50;;;;;;;9.28;77.18;100336.44;5061760;28;20044;-77
2021/10/25 05:06:58;;;;;;;11.73;2.35;;;;;;;9.29;77.09;100323.41;5057686;28;20110;-77
2021/10/25 05:09:25;;;;;;;5.15;1.25;;;;;;;9.28;76.98;100322.63;5042363;28;20488;-77
2021/10/25 05:11:51;;;;;;;6.38;1.40;;;;;;;9.29;77.10;100328.94;5060100;28;20058;-77
2021/10/25 05:14:18;;;;;;;9.95;1.33;;;;;;;9.28;77.04;100330.09;5056195;28;20049;-77
2021/10/25 05:16:45;;;;;;;7.38;1.20;;;;;;;9.28;76.85;100330.91;5038915;28;20411;-77
2021/10/25 05:19:11;;;;;;;6.55;1.10;;;;;;;9.26;76.91;100327.69;5060399;28;20573;-77
2021/10/25 05:21:38;;;;;;;7.13;1.70;;;;;;;9.27;77.01;100329.28;5042001;28;20067;-77
2021/10/25 05:24:05;;;;;;;5.88;0.90;;;;;;;9.29;76.89;100334.47;5044819;28;20044;-77
2021/10/25 05:26:33;;;;;;;7.85;1.00;;;;;;;9.31;76.84;100335.72;5061792;28;20043;-76
2021/10/25 05:29:00;;;;;;;4.78;1.00;;;;;;;9.32;76.80;100336.53;5059064;28;20051;-76
2021/10/25 05:31:27;;;;;;;6.18;1.05;;;;;;;9.33;76.86;100338.94;5066104;28;20492;-77
2021/10/25 05:33:56;;;;;;;4.72;1.65;;;;;;;9.33;76.80;100338.13;5043300;28;20041;-77
2021/10/25 05:36:23;;;;;;;8.70;1.30;;;;;;;9.33;76.81;100335.38;5062103;28;20033;-77
2021/10/25 05:38:51;;;;;;;6.18;0.90;;;;;;;9.34;76.89;100339.75;5040151;28;20063;-77
2021/10/25 05:41:18;;;;;;;10.77;1.23;;;;;;;9.35;76.88;100339.41;5043695;28;20072;-76
2021/10/25 05:43:45;;;;;;;4.00;1.30;;;;;;;9.36;76.79;100338.25;5063080;28;20040;-76
2021/10/25 05:46:11;;;;;;;16.95;3.58;;;;;;;9.37;76.73;100333.53;5061894;28;20046;-77
2021/10/25 05:48:40;;;;;;;6.15;1.60;;;;;;;9.37;76.88;100339.84;5062123;28;20033;-77
2021/10/25 05:51:07;;;;;;;11.23;2.65;;;;;;;9.39;76.80;100334.00;5060086;28;20498;-76
2021/10/25 05:53:34;;;;;;;8.13;1.60;;;;;;;9.39;76.61;100325.72;5066620;28;20044;-77
2021/10/25 05:56:01;;;;;;;2.45;1.15;;;;;;;9.39;76.65;100331.22;5063207;28;20045;-77
2021/10/25 05:58:29;;;;;;;5.75;1.27;;;;;;;9.39;76.70;100328.47;5064790;28;20124;-77
2021/10/25 06:00:59;;;;;;;10.00;1.30;;;;;;;9.39;76.78;100326.53;5066387;28;20146;-77
2021/10/25 06:03:28;;;;;;;5.15;1.83;;;;;;;9.41;76.58;100328.91;5034965;28;20542;-77
2021/10/25 06:05:55;;;;;;;8.20;1.50;;;;;;;9.41;76.65;100339.97;5051379;28;20077;-77
2021/10/25 06:08:22;;;;;;;10.05;1.42;;;;;;;9.41;76.63;100340.78;5065389;28;20090;-77
2021/10/25 06:10:49;;;;;;;4.65;1.05;;;;;;;9.40;76.63;100332.84;5028444;28;20041;-77
2021/10/25 06:13:24;;;;;;;6.25;1.10;;;;;;;9.41;76.52;100339.97;5062912;28;20139;-76
2021/10/25 06:16:36;;;;;;;5.95;1.10;;;;;;;9.41;76.42;100339.97;5049767;28;20676;-76
2021/10/25 06:18:45;;;;;;;5.18;2.20;;;;;;;9.38;76.63;100335.13;5040534;28;20049;-77
2021/10/25 06:21:12;;;;;;;6.10;1.35;;;;;;;9.40;76.60;100341.16;5054556;28;20114;-77
2021/10/25 06:23:39;;;;;;;9.45;1.70;;;;;;;9.41;76.66;100334.44;5062186;28;20370;-77
2021/10/25 06:26:06;;;;;;;5.63;1.08;;;;;;;9.41;76.55;100339.97;5029538;28;20047;-77
2021/10/25 06:28:33;;;;;;;6.75;1.55;;;;;;;9.43;76.59;100348.72;5064186;28;20047;-76
2021/10/25 06:31:04;;;;;;;4.65;1.17;;;;;;;9.44;76.75;100344.81;5049859;28;20094;-77
2021/10/25 06:33:44;;;;;;;6.28;2.92;;;;;;;9.47;76.71;100353.22;5065602;28;20040;-76
2021/10/25 06:36:11;;;;;;;6.30;1.48;;;;;;;9.48;76.63;100351.22;5044008;28;20041;-77
2021/10/25 06:41:20;;;;;;;4.55;0.98;;;;;;;9.50;76.59;100354.47;5062956;28;20135;-77
2021/10/25 06:43:47;;;;;;;7.28;0.98;;;;;;;9.49;76.50;100345.38;5061949;28;20041;-77
2021/10/25 06:46:15;;;;;;;9.02;1.88;;;;;;;9.50;76.56;100337.91;5043534;28;20418;-77
2021/10/25 06:48:42;;;;;;;4.65;1.35;;;;;;;9.51;76.51;100350.53;5058862;28;20043;-77
2021/10/25 06:51:09;;;;;;;4.78;1.33;;;;;;;9.51;76.54;100353.31;5046758;28;20139;-77
2021/10/25 06:53:36;;;;;;;5.63;1.13;;;;;;;9.51;76.76;100350.53;5069041;28;20032;-77
2021/10/25 06:56:03;;;;;;;5.53;1.27;;;;;;;9.51;76.50;100350.53;5044573;28;20511;-76
2021/10/25 06:58:32;;;;;;;8.07;1.90;;;;;;;9.54;76.58;100364.47;5064164;28;20036;-77
2021/10/25 07:01:00;;;;;;;4.07;1.10;;;;;;;9.54;76.57;100360.91;5065670;28;20045;-77
2021/10/25 07:03:27;;;;;;;6.50;0.98;;;;;;;9.55;76.57;100359.78;5048201;28;20419;-77
2021/10/25 07:05:55;;;;;;;11.93;1.90;;;;;;;9.53;76.62;100371.16;5064313;28;20041;-77
2021/10/25 07:08:22;;;;;;;7.32;1.75;;;;;;;9.52;76.59;100366.00;5065750;28;20050;-77
2021/10/25 07:10:49;;;;;;;5.63;0.93;;;;;;;9.54;76.32;100369.19;5064641;28;20113;-77
2021/10/25 07:13:17;;;;;;;6.53;1.38;;;;;;;9.55;76.52;100373.59;5046291;28;20078;-77
2021/10/25 07:15:50;;;;;;;7.95;1.25;;;;;;;9.52;76.39;100377.03;5038950;28;20123;-77
2021/10/25 07:18:26;;;;;;;9.60;1.63;;;;;;;9.53;76.37;100375.91;5062050;28;20131;-77
2021/10/25 07:21:23;;;;;;;7.10;1.42;;;;;;;9.53;76.39;100375.91;5064785;28;20045;-77
2021/10/25 08:00:05;;;;;;;6.43;1.90;;;;;;;9.59;76.17;100435.28;5059366;28;20052;-79
2021/10/25 08:05:10;;;;;;;12.70;2.13;;;;;;;9.58;76.20;100431.72;5043538;28;20041;-79
2021/10/25 08:10:40;;;;;;;6.05;1.20;;;;;;;9.59;76.20;100451.88;5026944;28;20143;-78
2021/10/25 08:13:13;;;;;;;11.48;1.38;;;;;;;9.57;76.14;100455.00;5059738;28;20051;-79
2021/10/25 08:15:42;;;;;;;9.70;1.77;;;;;;;9.57;76.26;100457.75;5040671;28;20046;-79
2021/10/25 08:18:31;;;;;;;12.15;1.88;;;;;;;9.57;76.12;100462.47;5035106;28;20045;-79
2021/10/25 08:20:58;;;;;;;11.48;2.00;;;;;;;9.59;76.28;100471.22;5039127;28;20560;-79
2021/10/25 08:23:25;;;;;;;10.00;2.08;;;;;;;9.60;76.08;100478.38;5058943;28;20508;-78
2021/10/25 08:25:52;;;;;;;18.50;3.35;;;;;;;9.58;76.29;100487.00;5025309;28;20059;-77
2021/10/25 08:28:19;;;;;;;6.07;1.58;;;;;;;9.57;76.06;100484.59;5062123;28;20480;-78
2021/10/25 08:30:46;;;;;;;7.85;1.20;;;;;;;9.54;76.13;100493.56;5058289;28;20041;-78
2021/10/25 08:41:32;;;;;;;7.22;1.63;;;;;;;9.62;76.37;100487.13;5060369;28;20048;-78
2021/10/25 08:44:00;;;;;;;7.07;1.15;;;;;;;9.71;76.42;100490.59;5043458;28;20370;-78
2021/10/25 08:46:29;;;;;;;4.40;0.80;;;;;;;9.75;76.24;100494.25;5044313;28;20726;-78
2021/10/25 08:48:56;;;;;;;10.10;1.73;;;;;;;9.82;76.46;100488.16;5063237;28;20400;-79
2021/10/25 08:51:25;;;;;;;6.72;1.10;;;;;;;9.87;76.45;100501.75;5045407;28;20064;-78
2021/10/25 08:53:52;;;;;;;4.22;1.25;;;;;;;9.87;76.40;100499.00;5060368;28;20102;-79
2021/10/25 08:56:19;;;;;;;8.82;1.95;;;;;;;9.86;76.19;100505.66;5062996;28;20055;-78
2021/10/25 08:58:50;;;;;;;6.88;1.90;;;;;;;9.87;76.08;100510.06;5059999;28;20040;-78
2021/10/25 09:01:28;;;;;;;6.30;1.70;;;;;;;9.87;75.82;100507.28;5063377;28;20443;-78
2021/10/25 09:04:11;;;;;;;9.00;1.63;;;;;;;9.90;75.68;100506.59;5047006;28;20120;-78
2021/10/25 09:06:51;;;;;;;6.38;1.45;;;;;;;9.92;75.45;100521.69;5045306;28;20044;-77
2021/10/25 09:09:18;;;;;;;6.72;0.82;;;;;;;9.95;75.62;100526.53;5045509;28;20076;-77
2021/10/25 09:12:07;;;;;;;9.68;1.23;;;;;;;10.00;75.39;100522.72;5062818;28;20045;-77
2021/10/25 09:14:37;;;;;;;6.50;0.73;;;;;;;10.03;75.37;100522.03;5043252;28;20041;-77
2021/10/25 09:17:06;;;;;;;11.68;1.92;;;;;;;10.05;75.33;100514.19;5044914;28;20041;-77
2021/10/25 09:19:34;;;;;;;6.28;1.33;;;;;;;10.09;75.22;100510.38;5043822;28;20040;-77
2021/10/25 09:22:16;;;;;;;3.90;0.80;;;;;;;10.18;74.96;100502.78;5059773;28;20045;-79
2021/10/25 09:24:57;;;;;;;9.57;1.58;;;;;;;10.30;74.80;100510.25;5061744;28;20063;-77
2021/10/25 09:27:38;;;;;;;6.45;1.23;;;;;;;10.40;74.40;100507.03;5059619;28;20072;-78
2021/10/25 09:30:13;;;;;;;6.40;0.93;;;;;;;10.51;74.04;100508.13;5031195;28;20508;-79
2021/10/25 09:32:43;;;;;;;4.10;0.73;;;;;;;10.69;74.45;100505.88;5054789;28;20044;-79
2021/10/25 09:35:17;;;;;;;10.07;1.70;;;;;;;10.82;74.31;100499.16;5046366;28;20045;-79
2021/10/25 09:38:07;;;;;;;6.25;1.20;;;;;;;10.92;73.80;100501.41;5037912;28;20063;-80
2021/10/25 09:40:50;;;;;;;4.07;0.80;;;;;;;10.92;73.68;100507.75;5045706;28;20555;-79
2021/10/25 09:49:33;;;;;;;7.90;1.58;;;;;;;10.78;72.58;100512.06;5017629;28;20095;-79
2021/10/25 09:52:02;;;;;;;5.10;0.70;;;;;;;10.75;72.98;100510.81;5046094;28;20124;-79
2021/10/25 09:54:32;;;;;;;6.63;0.80;;;;;;;10.73;73.25;100518.66;5050315;28;20080;-79
2021/10/25 09:59:48;;;;;;;3.92;0.77;;;;;;;10.72;73.50;100522.59;5054972;28;20477;-79
2021/10/25 10:02:17;;;;;;;4.30;0.80;;;;;;;10.74;73.26;100530.56;5058517;28;20057;-79
2021/10/25 10:04:49;;;;;;;5.57;1.45;;;;;;;10.77;73.35;100529.84;5048696;28;20045;-79
2021/10/25 10:07:16;;;;;;;4.87;1.57;;;;;;;10.80;73.57;100527.16;5054606;28;20147;-79
2021/10/25 10:09:48;;;;;;;3.92;0.80;;;;;;;10.88;73.48;100530.97;5037194;28;20109;-79
2021/10/25 10:12:18;;;;;;;5.65;1.00;;;;;;;10.97;73.25;100517.75;5032964;28;20068;-79
2021/10/25 10:14:54;;;;;;;7.68;1.92;;;;;;;11.08;73.06;100524.41;5038051;28;20095;-79
2021/10/25 10:17:42;;;;;;;6.47;0.82;;;;;;;11.19;71.75;100525.50;5055881;28;20072;-79
2021/10/25 10:20:30;;;;;;;1.80;0.52;;;;;;;11.22;71.77;100519.25;5056500;28;20107;-79
2021/10/25 10:23:01;;;;;;;5.53;1.05;;;;;;;11.22;71.93;100527.56;5046526;28;20065;-78
2021/10/25 10:25:33;;;;;;;2.55;0.88;;;;;;;11.19;72.03;100533.81;5053412;28;20094;-79
2021/10/25 10:28:06;;;;;;;5.55;1.02;;;;;;;11.18;71.71;100529.44;5052379;28;20068;-79
2021/10/25 10:30:51;;;;;;;4.90;1.00;;;;;;;11.17;71.65;100527.84;5054268;28;20126;-79
2021/10/25 10:33:39;;;;;;;5.25;0.98;;;;;;;11.18;72.01;100531.41;5049978;28;20513;-79
2021/10/25 10:36:14;;;;;;;4.10;1.20;;;;;;;11.17;71.99;100532.56;5054875;28;20056;-79
2021/10/25 10:38:54;;;;;;;3.58;0.80;;;;;;;11.19;72.15;100525.50;5054926;28;20098;-79
2021/10/25 10:41:34;;;;;;;5.32;0.75;;;;;;;11.22;72.12;100538.66;5059449;28;20487;-79
2021/10/25 10:44:07;;;;;;;2.70;0.80;;;;;;;11.26;71.94;100530.44;5056853;28;20068;-79
2021/10/25 10:46:45;;;;;;;2.38;1.00;;;;;;;11.30;71.62;100537.69;5057152;28;20041;-78
2021/10/25 10:49:35;;;;;;;8.20;0.90;;;;;;;11.34;71.64;100544.13;5055477;28;20548;-78
2021/10/25 10:52:11;;;;;;;6.05;2.63;;;;;;;11.36;71.74;100536.25;5048505;28;20041;-79
2021/10/25 10:54:57;;;;;;;5.63;0.90;;;;;;;11.38;71.57;100535.91;5053738;28;20120;-79
2021/10/25 10:58:00;;;;;;;6.05;1.00;;;;;;;11.38;71.43;100525.66;5056959;28;20475;-79
2021/10/25 11:00:39;;;;;;;5.28;0.85;;;;;;;11.32;71.12;100538.13;5037588;28;20045;-79
2021/10/25 11:03:24;;;;;;;5.03;1.20;;;;;;;11.35;71.47;100550.47;5037303;28;20170;-79
2021/10/25 11:05:59;;;;;;;6.63;1.05;;;;;;;11.35;71.59;100534.66;5056409;28;20124;-79
2021/10/25 11:08:34;;;;;;;5.10;1.15;;;;;;;11.36;71.35;100532.66;5056746;28;20496;-79
2021/10/25 11:11:19;;;;;;;4.57;1.30;;;;;;;11.38;71.28;100533.97;5054790;28;20048;-79
2021/10/25 11:13:50;;;;;;;5.22;1.30;;;;;;;11.43;71.67;100519.03;5038426;28;20048;-79
2021/10/25 11:16:27;;;;;;;5.85;1.05;;;;;;;11.45;71.24;100522.22;5053585;28;20129;-78
2021/10/25 11:18:57;;;;;;;8.15;0.90;;;;;;;11.45;71.22;100528.59;5056889;28;20039;-78
2021/10/25 11:21:29;;;;;;;6.28;2.47;;;;;;;11.50;71.33;100536.63;5038112;28;20049;-83
2021/10/25 11:24:00;;;;;;;10.88;2.47;;;;;;;11.52;70.98;100523.22;5057155;28;20045;-80
2021/10/25 11:26:31;;;;;;;5.97;1.23;;;;;;;11.57;71.21;100533.22;5039478;28;20044;-80
2021/10/25 11:29:04;;;;;;;7.18;1.25;;;;;;;11.63;71.31;100529.84;5042845;28;20439;-81
2021/10/25 11:31:44;;;;;;;10.00;1.50;;;;;;;11.72;71.33;100534.44;5050829;28;20048;-81
2021/10/25 11:34:20;;;;;;;6.28;1.05;;;;;;;11.74;70.95;100529.34;5034175;28;20396;-79
2021/10/25 11:37:02;;;;;;;11.88;1.90;;;;;;;11.76;70.65;100533.38;5035998;28;20085;-78
2021/10/25 11:39:46;;;;;;;5.93;1.33;;;;;;;11.80;70.79;100533.47;5043875;28;20110;-78
2021/10/25 11:42:27;;;;;;;7.40;1.10;;;;;;;11.87;70.32;100536.41;5062386;28;20078;-78
2021/10/25 11:45:01;;;;;;;3.20;1.10;;;;;;;11.90;70.41;100527.38;5064487;28;20106;-78
2021/10/25 11:47:33;;;;;;;5.90;1.38;;;;;;;11.94;70.58;100525.50;5059531;28;20037;-78
2021/10/25 11:50:07;;;;;;;8.43;1.23;;;;;;;11.96;70.11;100532.28;5038242;28;20044;-78
2021/10/25 11:52:40;;;;;;;9.80;1.80;;;;;;;11.99;69.97;100525.22;5061655;28;20052;-78
2021/10/25 11:55:08;;;;;;;4.57;0.77;;;;;;;12.04;69.65;100536.03;5062930;28;20063;-78
2021/10/25 11:57:36;;;;;;;4.55;1.05;;;;;;;12.09;69.46;100527.44;5063950;28;20040;-78
2021/10/25 12:00:05;;;;;;;10.23;2.25;;;;;;;12.11;69.17;100522.31;5063845;28;20136;-78
2021/10/25 12:02:37;;;;;;;7.45;1.00;;;;;;;12.12;68.82;100529.50;5061619;28;20143;-78
2021/10/25 12:05:05;;;;;;;3.83;0.82;;;;;;;12.09;68.99;100535.75;5059227;28;20068;-78
2021/10/25 12:07:33;;;;;;;8.90;1.92;;;;;;;12.05;69.04;100532.09;5058464;28;20064;-78
2021/10/25 12:10:06;;;;;;;13.23;1.70;;;;;;;12.12;68.48;100537.81;5060632;28;20056;-78
2021/10/25 12:12:34;;;;;;;6.22;1.05;;;;;;;12.21;68.33;100530.09;5058750;28;20128;-78
2021/10/25 12:15:03;;;;;;;4.30;1.05;;;;;;;12.36;68.46;100523.72;5054688;28;20570;-78
2021/10/25 12:17:36;;;;;;;14.43;2.17;;;;;;;12.46;67.84;100534.25;5056675;28;20060;-77
2021/10/25 12:20:11;;;;;;;3.88;1.42;;;;;;;12.59;67.92;100535.72;5058552;28;20060;-78
2021/10/25 12:22:43;;;;;;;5.55;1.70;;;;;;;12.69;67.73;100526.81;5054934;28;20052;-78
2021/10/25 12:25:10;;;;;;;4.72;1.27;;;;;;;12.79;67.76;100531.78;5046801;28;20136;-78
2021/10/25 12:27:39;;;;;;;3.15;1.10;;;;;;;12.83;67.18;100538.25;5048073;28;20068;-78
2021/10/25 12:30:14;;;;;;;4.57;1.45;;;;;;;12.92;67.02;100535.22;5059291;28;20040;-78
2021/10/25 12:32:57;;;;;;;8.45;1.70;;;;;;;13.02;64.66;100539.41;5062063;28;20449;-78
2021/10/25 12:35:46;;;;;;;5.82;2.85;;;;;;;13.09;65.03;100534.81;5063810;28;20059;-78
2021/10/25 12:38:16;;;;;;;3.33;1.20;;;;;;;13.14;65.65;100533.69;5046223;28;20452;-78
2021/10/25 12:40:50;;;;;;;4.53;1.27;;;;;;;13.22;64.71;100533.47;5059637;28;20143;-78
2021/10/25 12:43:22;;;;;;;6.82;1.80;;;;;;;13.28;65.29;100536.75;5063946;28;20048;-78
2021/10/25 12:46:02;;;;;;;4.90;1.08;;;;;;;13.35;63.59;100534.91;5062076;28;20048;-78
2021/10/25 12:48:56;;;;;;;5.72;1.27;;;;;;;13.46;63.17;100537.91;5056961;28;20045;-78
2021/10/25 12:51:40;;;;;;;7.82;1.23;;;;;;;13.46;62.91;100537.91;5051074;28;20087;-79
2021/10/25 12:54:12;;;;;;;8.48;1.25;;;;;;;13.44;64.18;100540.25;5050575;28;20048;-79
2021/10/25 12:56:39;;;;;;;3.95;1.30;;;;;;;13.36;64.20;100546.84;5052053;28;20504;-78
2021/10/25 12:59:09;;;;;;;5.18;1.42;;;;;;;13.26;63.96;100547.47;5028708;28;20033;-78
2021/10/25 13:01:36;;;;;;;6.35;1.50;;;;;;;13.18;64.35;100552.09;5056239;28;20037;-77
2021/10/25 13:04:05;;;;;;;4.65;1.60;;;;;;;13.10;64.45;100546.75;5043449;28;20407;-78
2021/10/25 13:06:34;;;;;;;6.22;1.40;;;;;;;12.97;64.53;100548.84;5062536;28;20075;-78
2021/10/25 13:09:08;;;;;;;5.10;1.30;;;;;;;12.96;64.57;100551.97;5044722;28;20044;-78
2021/10/25 13:11:36;;;;;;;5.07;1.00;;;;;;;13.09;64.86;100545.13;5059599;28;20041;-78
2021/10/25 13:14:05;;;;;;;7.35;1.10;;;;;;;13.23;64.60;100551.78;5062707;28;20068;-78
2021/10/25 13:19:09;;;;;;;4.20;1.00;;;;;;;13.51;64.18;100534.00;5058070;28;20171;-78
2021/10/25 13:21:36;;;;;;;4.50;1.10;;;;;;;13.67;64.11;100543.84;5061195;28;20068;-78
2021/10/25 13:24:03;;;;;;;6.43;1.48;;;;;;;13.74;63.88;100538.38;5027799;28;20040;-78